sensor_id;sensor_type;location;lat;lon;timestamp;P1;durP1;ratioP1;P2;durP2;ratioP2
7833;SDS011;3962;42.696;23.354;2023-04-30T00:01:33;11.07;;;7.30;;
7833;SDS011;3962;42.696;23.354;2023-04-30T00:04:00;12.13;;;7.77;;
7833;SDS011;3962;42.696;23.354;2023-04-30T00:06:27;11.37;;;7.57;;
7833;SDS011;3962;42.696;23.354;2023-04-30T00:08:53;12.13;;;7.50;;
7833;SDS011;3962;42.696;23.354;2023-04-30T00:11:20;11.43;;;7.37;;
7833;SDS011;3962;42.696;23.354;2023-04-30T00:13:49;15.57;;;7.77;;
7833;SDS011;3962;42.696;23.354;2023-04-30T00:16:16;10.70;;;7.40;;
7833;SDS011;3962;42.696;23.354;2023-04-30T00:18:42;11.77;;;7.40;;
7833;SDS011;3962;42.696;23.354;2023-04-30T00:21:09;11.07;;;7.93;;
7833;SDS011;3962;42.696;23.354;2023-04-30T00:23:36;11.63;;;6.77;;
7833;SDS011;3962;42.696;23.354;2023-04-30T00:26:03;10.87;;;7.07;;
7833;SDS011;3962;42.696;23.354;2023-04-30T00:28:30;11.47;;;6.93;;
7833;SDS011;3962;42.696;23.354;2023-04-30T00:30:58;9.07;;;6.93;;
7833;SDS011;3962;42.696;23.354;2023-04-30T00:33:25;14.27;;;8.03;;
7833;SDS011;3962;42.696;23.354;2023-04-30T00:35:51;12.83;;;8.00;;
7833;SDS011;3962;42.696;23.354;2023-04-30T00:38:18;13.17;;;8.30;;
7833;SDS011;3962;42.696;23.354;2023-04-30T00:40:45;11.17;;;7.63;;
7833;SDS011;3962;42.696;23.354;2023-04-30T00:43:12;12.83;;;8.03;;
7833;SDS011;3962;42.696;23.354;2023-04-30T00:45:39;13.67;;;7.80;;
7833;SDS011;3962;42.696;23.354;2023-04-30T00:48:07;13.37;;;8.23;;
7833;SDS011;3962;42.696;23.354;2023-04-30T00:50:34;9.87;;;8.13;;
7833;SDS011;3962;42.696;23.354;2023-04-30T00:53:01;14.03;;;8.63;;
7833;SDS011;3962;42.696;23.354;2023-04-30T00:55:30;17.07;;;8.47;;
7833;SDS011;3962;42.696;23.354;2023-04-30T00:57:57;14.33;;;8.73;;
7833;SDS011;3962;42.696;23.354;2023-04-30T01:00:25;13.80;;;8.37;;
7833;SDS011;3962;42.696;23.354;2023-04-30T01:02:52;12.90;;;8.40;;
7833;SDS011;3962;42.696;23.354;2023-04-30T01:05:22;12.30;;;8.73;;
7833;SDS011;3962;42.696;23.354;2023-04-30T01:07:50;16.83;;;8.80;;
7833;SDS011;3962;42.696;23.354;2023-04-30T01:10:18;16.80;;;10.13;;
7833;SDS011;3962;42.696;23.354;2023-04-30T01:12:46;15.03;;;9.30;;
7833;SDS011;3962;42.696;23.354;2023-04-30T01:15:24;17.57;;;9.73;;
7833;SDS011;3962;42.696;23.354;2023-04-30T01:17:55;14.40;;;9.30;;
7833;SDS011;3962;42.696;23.354;2023-04-30T01:20:25;16.37;;;8.93;;
7833;SDS011;3962;42.696;23.354;2023-04-30T01:22:56;15.73;;;8.83;;
7833;SDS011;3962;42.696;23.354;2023-04-30T01:28:35;16.83;;;10.17;;
7833;SDS011;3962;42.696;23.354;2023-04-30T01:31:09;18.27;;;10.57;;
7833;SDS011;3962;42.696;23.354;2023-04-30T01:33:37;15.03;;;9.70;;
7833;SDS011;3962;42.696;23.354;2023-04-30T01:36:10;14.27;;;9.67;;
7833;SDS011;3962;42.696;23.354;2023-04-30T01:38:54;13.70;;;9.50;;
7833;SDS011;3962;42.696;23.354;2023-04-30T01:41:30;14.77;;;9.70;;
7833;SDS011;3962;42.696;23.354;2023-04-30T01:44:11;17.47;;;10.27;;
7833;SDS011;3962;42.696;23.354;2023-04-30T01:46:56;15.10;;;9.43;;
7833;SDS011;3962;42.696;23.354;2023-04-30T01:49:31;14.77;;;9.73;;
7833;SDS011;3962;42.696;23.354;2023-04-30T01:52:08;16.83;;;9.67;;
7833;SDS011;3962;42.696;23.354;2023-04-30T01:54:42;14.63;;;9.30;;
7833;SDS011;3962;42.696;23.354;2023-04-30T01:57:15;15.90;;;9.37;;
7833;SDS011;3962;42.696;23.354;2023-04-30T01:59:48;11.23;;;8.40;;
7833;SDS011;3962;42.696;23.354;2023-04-30T02:02:15;11.60;;;8.67;;
7833;SDS011;3962;42.696;23.354;2023-04-30T02:04:42;15.67;;;8.77;;
7833;SDS011;3962;42.696;23.354;2023-04-30T02:07:09;14.53;;;9.40;;
7833;SDS011;3962;42.696;23.354;2023-04-30T02:09:38;15.80;;;10.63;;
7833;SDS011;3962;42.696;23.354;2023-04-30T02:12:05;14.30;;;9.93;;
7833;SDS011;3962;42.696;23.354;2023-04-30T02:14:32;16.77;;;9.50;;
7833;SDS011;3962;42.696;23.354;2023-04-30T02:17:00;16.00;;;9.77;;
7833;SDS011;3962;42.696;23.354;2023-04-30T02:19:26;15.57;;;10.13;;
7833;SDS011;3962;42.696;23.354;2023-04-30T02:21:53;12.90;;;9.57;;
7833;SDS011;3962;42.696;23.354;2023-04-30T02:24:20;13.93;;;9.70;;
7833;SDS011;3962;42.696;23.354;2023-04-30T02:26:47;14.97;;;9.77;;
7833;SDS011;3962;42.696;23.354;2023-04-30T02:29:14;17.87;;;11.47;;
7833;SDS011;3962;42.696;23.354;2023-04-30T02:31:41;13.77;;;8.23;;
7833;SDS011;3962;42.696;23.354;2023-04-30T02:34:09;10.47;;;7.67;;
7833;SDS011;3962;42.696;23.354;2023-04-30T02:36:36;12.57;;;8.03;;
7833;SDS011;3962;42.696;23.354;2023-04-30T02:39:03;12.90;;;8.60;;
7833;SDS011;3962;42.696;23.354;2023-04-30T02:41:30;13.57;;;8.40;;
7833;SDS011;3962;42.696;23.354;2023-04-30T02:43:57;14.30;;;9.10;;
7833;SDS011;3962;42.696;23.354;2023-04-30T02:46:23;12.97;;;8.97;;
7833;SDS011;3962;42.696;23.354;2023-04-30T02:48:50;13.23;;;9.30;;
7833;SDS011;3962;42.696;23.354;2023-04-30T02:51:18;0.40;;;0.40;;
7833;SDS011;3962;42.696;23.354;2023-04-30T02:53:45;6.90;;;3.60;;
7833;SDS011;3962;42.696;23.354;2023-04-30T02:56:12;0.60;;;0.60;;
7833;SDS011;3962;42.696;23.354;2023-04-30T02:58:39;12.67;;;8.83;;
7833;SDS011;3962;42.696;23.354;2023-04-30T03:01:06;0.50;;;0.50;;
7833;SDS011;3962;42.696;23.354;2023-04-30T03:03:32;0.80;;;0.80;;
7833;SDS011;3962;42.696;23.354;2023-04-30T03:05:59;0.47;;;0.47;;
7833;SDS011;3962;42.696;23.354;2023-04-30T03:08:28;1.37;;;1.37;;
7833;SDS011;3962;42.696;23.354;2023-04-30T03:10:55;0.50;;;0.50;;
7833;SDS011;3962;42.696;23.354;2023-04-30T03:13:21;0.30;;;0.30;;
7833;SDS011;3962;42.696;23.354;2023-04-30T03:15:55;0.43;;;0.43;;
7833;SDS011;3962;42.696;23.354;2023-04-30T03:18:22;0.40;;;0.40;;
7833;SDS011;3962;42.696;23.354;2023-04-30T03:20:49;0.63;;;0.63;;
7833;SDS011;3962;42.696;23.354;2023-04-30T03:23:16;0.40;;;0.40;;
7833;SDS011;3962;42.696;23.354;2023-04-30T03:25:44;0.70;;;0.70;;
7833;SDS011;3962;42.696;23.354;2023-04-30T03:28:10;0.80;;;0.80;;
7833;SDS011;3962;42.696;23.354;2023-04-30T03:30:37;1.63;;;1.63;;
7833;SDS011;3962;42.696;23.354;2023-04-30T03:33:04;0.50;;;0.50;;
7833;SDS011;3962;42.696;23.354;2023-04-30T03:35:31;0.60;;;0.60;;
7833;SDS011;3962;42.696;23.354;2023-04-30T03:37:58;0.60;;;0.60;;
7833;SDS011;3962;42.696;23.354;2023-04-30T03:40:25;0.50;;;0.50;;
7833;SDS011;3962;42.696;23.354;2023-04-30T03:42:53;0.80;;;0.80;;
7833;SDS011;3962;42.696;23.354;2023-04-30T03:45:21;1.10;;;1.10;;
7833;SDS011;3962;42.696;23.354;2023-04-30T03:47:48;1.70;;;1.60;;
7833;SDS011;3962;42.696;23.354;2023-04-30T03:50:15;10.67;;;7.23;;
7833;SDS011;3962;42.696;23.354;2023-04-30T03:52:43;11.60;;;7.77;;
7833;SDS011;3962;42.696;23.354;2023-04-30T03:55:10;12.83;;;7.87;;
7833;SDS011;3962;42.696;23.354;2023-04-30T03:57:37;12.60;;;7.03;;
7833;SDS011;3962;42.696;23.354;2023-04-30T04:00:08;10.70;;;7.90;;
7833;SDS011;3962;42.696;23.354;2023-04-30T04:02:36;9.30;;;7.33;;
7833;SDS011;3962;42.696;23.354;2023-04-30T04:05:03;11.43;;;7.80;;
7833;SDS011;3962;42.696;23.354;2023-04-30T04:07:30;18.63;;;9.00;;
7833;SDS011;3962;42.696;23.354;2023-04-30T04:09:57;13.10;;;8.90;;
7833;SDS011;3962;42.696;23.354;2023-04-30T04:12:24;14.50;;;9.93;;
7833;SDS011;3962;42.696;23.354;2023-04-30T04:14:51;16.80;;;10.67;;
7833;SDS011;3962;42.696;23.354;2023-04-30T04:17:19;25.50;;;17.30;;
7833;SDS011;3962;42.696;23.354;2023-04-30T04:19:46;37.87;;;26.27;;
7833;SDS011;3962;42.696;23.354;2023-04-30T04:22:13;48.07;;;34.93;;
7833;SDS011;3962;42.696;23.354;2023-04-30T04:24:40;55.43;;;38.90;;
7833;SDS011;3962;42.696;23.354;2023-04-30T04:27:06;50.80;;;37.13;;
7833;SDS011;3962;42.696;23.354;2023-04-30T04:29:33;42.93;;;30.10;;
7833;SDS011;3962;42.696;23.354;2023-04-30T04:32:00;37.83;;;27.07;;
7833;SDS011;3962;42.696;23.354;2023-04-30T04:34:31;35.43;;;21.93;;
7833;SDS011;3962;42.696;23.354;2023-04-30T04:36:58;25.53;;;17.57;;
7833;SDS011;3962;42.696;23.354;2023-04-30T04:39:25;29.57;;;18.80;;
7833;SDS011;3962;42.696;23.354;2023-04-30T04:41:52;32.00;;;20.63;;
7833;SDS011;3962;42.696;23.354;2023-04-30T04:44:19;24.57;;;13.63;;
7833;SDS011;3962;42.696;23.354;2023-04-30T04:46:46;26.23;;;17.73;;
7833;SDS011;3962;42.696;23.354;2023-04-30T04:49:14;28.57;;;16.87;;
7833;SDS011;3962;42.696;23.354;2023-04-30T04:51:42;23.27;;;15.17;;
7833;SDS011;3962;42.696;23.354;2023-04-30T04:54:09;27.37;;;14.87;;
7833;SDS011;3962;42.696;23.354;2023-04-30T04:56:35;20.13;;;13.43;;
7833;SDS011;3962;42.696;23.354;2023-04-30T04:59:02;23.50;;;13.90;;
7833;SDS011;3962;42.696;23.354;2023-04-30T05:01:29;19.67;;;13.63;;
7833;SDS011;3962;42.696;23.354;2023-04-30T05:03:56;21.47;;;12.80;;
7833;SDS011;3962;42.696;23.354;2023-04-30T05:06:23;17.80;;;11.30;;
7833;SDS011;3962;42.696;23.354;2023-04-30T05:08:52;20.30;;;13.80;;
7833;SDS011;3962;42.696;23.354;2023-04-30T05:11:19;21.03;;;12.17;;
7833;SDS011;3962;42.696;23.354;2023-04-30T05:13:46;12.60;;;8.90;;
7833;SDS011;3962;42.696;23.354;2023-04-30T05:16:13;15.33;;;7.63;;
7833;SDS011;3962;42.696;23.354;2023-04-30T05:18:40;10.63;;;7.00;;
7833;SDS011;3962;42.696;23.354;2023-04-30T05:21:07;14.13;;;7.53;;
7833;SDS011;3962;42.696;23.354;2023-04-30T05:23:34;11.27;;;7.77;;
7833;SDS011;3962;42.696;23.354;2023-04-30T05:26:02;15.37;;;8.83;;
7833;SDS011;3962;42.696;23.354;2023-04-30T05:28:29;9.63;;;8.13;;
7833;SDS011;3962;42.696;23.354;2023-04-30T05:30:56;12.40;;;8.03;;
7833;SDS011;3962;42.696;23.354;2023-04-30T05:33:23;12.67;;;8.27;;
7833;SDS011;3962;42.696;23.354;2023-04-30T05:35:50;16.93;;;9.70;;
7833;SDS011;3962;42.696;23.354;2023-04-30T05:38:17;19.23;;;9.90;;
7833;SDS011;3962;42.696;23.354;2023-04-30T05:40:56;20.20;;;11.93;;
7833;SDS011;3962;42.696;23.354;2023-04-30T05:54:17;21.37;;;11.90;;
7833;SDS011;3962;42.696;23.354;2023-04-30T05:56:43;18.37;;;12.17;;
7833;SDS011;3962;42.696;23.354;2023-04-30T05:59:10;17.03;;;11.80;;
7833;SDS011;3962;42.696;23.354;2023-04-30T06:01:38;23.83;;;12.63;;
7833;SDS011;3962;42.696;23.354;2023-04-30T06:04:04;15.93;;;11.70;;
7833;SDS011;3962;42.696;23.354;2023-04-30T06:06:33;22.37;;;13.33;;
7833;SDS011;3962;42.696;23.354;2023-04-30T06:09:00;27.13;;;13.80;;
7833;SDS011;3962;42.696;23.354;2023-04-30T06:11:28;24.27;;;13.27;;
7833;SDS011;3962;42.696;23.354;2023-04-30T06:13:55;19.23;;;12.00;;
7833;SDS011;3962;42.696;23.354;2023-04-30T06:16:22;25.60;;;15.13;;
7833;SDS011;3962;42.696;23.354;2023-04-30T06:18:49;21.67;;;13.87;;
7833;SDS011;3962;42.696;23.354;2023-04-30T06:21:15;24.83;;;15.20;;
7833;SDS011;3962;42.696;23.354;2023-04-30T06:23:42;24.50;;;16.10;;
7833;SDS011;3962;42.696;23.354;2023-04-30T06:26:09;32.57;;;15.97;;
7833;SDS011;3962;42.696;23.354;2023-04-30T06:28:40;38.13;;;18.03;;
7833;SDS011;3962;42.696;23.354;2023-04-30T06:31:07;26.50;;;17.07;;
7833;SDS011;3962;42.696;23.354;2023-04-30T06:33:34;25.40;;;16.93;;
7833;SDS011;3962;42.696;23.354;2023-04-30T06:36:01;22.87;;;16.40;;
7833;SDS011;3962;42.696;23.354;2023-04-30T06:38:29;28.80;;;16.43;;
7833;SDS011;3962;42.696;23.354;2023-04-30T06:40:56;23.27;;;15.57;;
7833;SDS011;3962;42.696;23.354;2023-04-30T06:43:23;25.57;;;15.30;;
7833;SDS011;3962;42.696;23.354;2023-04-30T06:45:51;27.97;;;18.90;;
7833;SDS011;3962;42.696;23.354;2023-04-30T06:48:18;21.43;;;15.47;;
7833;SDS011;3962;42.696;23.354;2023-04-30T06:50:44;13.93;;;8.90;;
7833;SDS011;3962;42.696;23.354;2023-04-30T06:53:12;20.33;;;12.07;;
7833;SDS011;3962;42.696;23.354;2023-04-30T06:55:39;22.83;;;13.10;;
7833;SDS011;3962;42.696;23.354;2023-04-30T06:58:06;29.63;;;13.43;;
7833;SDS011;3962;42.696;23.354;2023-04-30T07:00:33;18.90;;;12.07;;
7833;SDS011;3962;42.696;23.354;2023-04-30T07:03:02;18.37;;;11.60;;
7833;SDS011;3962;42.696;23.354;2023-04-30T07:05:29;29.17;;;12.57;;
7833;SDS011;3962;42.696;23.354;2023-04-30T07:07:56;22.77;;;13.17;;
7833;SDS011;3962;42.696;23.354;2023-04-30T07:10:23;21.57;;;12.53;;
7833;SDS011;3962;42.696;23.354;2023-04-30T07:12:50;20.50;;;12.50;;
7833;SDS011;3962;42.696;23.354;2023-04-30T07:15:17;18.97;;;12.47;;
7833;SDS011;3962;42.696;23.354;2023-04-30T07:17:43;20.63;;;12.20;;
7833;SDS011;3962;42.696;23.354;2023-04-30T07:20:12;25.70;;;12.80;;
7833;SDS011;3962;42.696;23.354;2023-04-30T07:22:39;25.63;;;12.67;;
7833;SDS011;3962;42.696;23.354;2023-04-30T07:25:08;16.17;;;11.73;;
7833;SDS011;3962;42.696;23.354;2023-04-30T07:27:35;19.07;;;11.60;;
7833;SDS011;3962;42.696;23.354;2023-04-30T07:30:02;22.53;;;11.70;;
7833;SDS011;3962;42.696;23.354;2023-04-30T07:32:29;23.37;;;10.90;;
7833;SDS011;3962;42.696;23.354;2023-04-30T07:34:56;15.40;;;10.37;;
7833;SDS011;3962;42.696;23.354;2023-04-30T07:37:24;13.43;;;9.90;;
7833;SDS011;3962;42.696;23.354;2023-04-30T07:39:51;18.93;;;10.40;;
7833;SDS011;3962;42.696;23.354;2023-04-30T07:42:18;21.30;;;10.60;;
7833;SDS011;3962;42.696;23.354;2023-04-30T07:44:44;17.30;;;10.47;;
7833;SDS011;3962;42.696;23.354;2023-04-30T07:47:13;15.30;;;10.43;;
7833;SDS011;3962;42.696;23.354;2023-04-30T07:49:40;16.20;;;9.90;;
7833;SDS011;3962;42.696;23.354;2023-04-30T07:52:06;22.90;;;10.63;;
7833;SDS011;3962;42.696;23.354;2023-04-30T07:54:36;19.13;;;9.63;;
7833;SDS011;3962;42.696;23.354;2023-04-30T07:57:04;18.83;;;9.67;;
7833;SDS011;3962;42.696;23.354;2023-04-30T07:59:31;19.37;;;9.63;;
7833;SDS011;3962;42.696;23.354;2023-04-30T08:01:58;16.03;;;9.53;;
7833;SDS011;3962;42.696;23.354;2023-04-30T08:04:25;15.87;;;9.13;;
7833;SDS011;3962;42.696;23.354;2023-04-30T08:06:51;12.17;;;7.60;;
7833;SDS011;3962;42.696;23.354;2023-04-30T08:09:18;11.07;;;7.40;;
7833;SDS011;3962;42.696;23.354;2023-04-30T08:11:46;14.37;;;6.90;;
7833;SDS011;3962;42.696;23.354;2023-04-30T08:14:13;12.20;;;7.33;;
7833;SDS011;3962;42.696;23.354;2023-04-30T08:16:40;13.13;;;7.07;;
7833;SDS011;3962;42.696;23.354;2023-04-30T08:19:07;10.43;;;7.13;;
7833;SDS011;3962;42.696;23.354;2023-04-30T08:21:33;13.60;;;6.10;;
7833;SDS011;3962;42.696;23.354;2023-04-30T08:24:00;9.67;;;5.57;;
7833;SDS011;3962;42.696;23.354;2023-04-30T08:26:27;12.03;;;5.53;;
7833;SDS011;3962;42.696;23.354;2023-04-30T08:28:55;10.50;;;5.37;;
7833;SDS011;3962;42.696;23.354;2023-04-30T08:31:22;13.47;;;5.77;;
7833;SDS011;3962;42.696;23.354;2023-04-30T08:33:49;7.90;;;4.93;;
7833;SDS011;3962;42.696;23.354;2023-04-30T08:36:16;10.03;;;5.73;;
7833;SDS011;3962;42.696;23.354;2023-04-30T08:38:43;9.77;;;5.63;;
7833;SDS011;3962;42.696;23.354;2023-04-30T08:41:10;8.30;;;6.20;;
7833;SDS011;3962;42.696;23.354;2023-04-30T08:43:38;12.53;;;6.40;;
7833;SDS011;3962;42.696;23.354;2023-04-30T08:46:07;12.13;;;6.47;;
7833;SDS011;3962;42.696;23.354;2023-04-30T08:48:33;17.17;;;9.13;;
7833;SDS011;3962;42.696;23.354;2023-04-30T08:51:00;8.97;;;5.97;;
7833;SDS011;3962;42.696;23.354;2023-04-30T08:53:28;7.77;;;4.90;;
7833;SDS011;3962;42.696;23.354;2023-04-30T08:55:56;8.67;;;5.20;;
7833;SDS011;3962;42.696;23.354;2023-04-30T08:58:23;7.27;;;4.67;;
7833;SDS011;3962;42.696;23.354;2023-04-30T09:00:50;18.10;;;5.07;;
7833;SDS011;3962;42.696;23.354;2023-04-30T09:03:18;6.43;;;4.53;;
7833;SDS011;3962;42.696;23.354;2023-04-30T09:05:46;6.47;;;4.67;;
7833;SDS011;3962;42.696;23.354;2023-04-30T09:08:15;5.23;;;4.13;;
7833;SDS011;3962;42.696;23.354;2023-04-30T09:10:44;9.30;;;4.90;;
7833;SDS011;3962;42.696;23.354;2023-04-30T09:13:11;8.17;;;4.87;;
7833;SDS011;3962;42.696;23.354;2023-04-30T09:15:38;4.73;;;4.10;;
7833;SDS011;3962;42.696;23.354;2023-04-30T09:18:10;6.43;;;4.43;;
7833;SDS011;3962;42.696;23.354;2023-04-30T09:20:54;5.80;;;4.50;;
7833;SDS011;3962;42.696;23.354;2023-04-30T09:23:23;5.50;;;4.20;;
7833;SDS011;3962;42.696;23.354;2023-04-30T09:25:50;4.67;;;3.80;;
7833;SDS011;3962;42.696;23.354;2023-04-30T09:28:17;5.33;;;4.17;;
7833;SDS011;3962;42.696;23.354;2023-04-30T09:30:48;4.00;;;3.60;;
7833;SDS011;3962;42.696;23.354;2023-04-30T09:33:15;6.40;;;4.23;;
7833;SDS011;3962;42.696;23.354;2023-04-30T09:35:42;4.90;;;4.03;;
7833;SDS011;3962;42.696;23.354;2023-04-30T09:38:25;4.87;;;4.37;;
7833;SDS011;3962;42.696;23.354;2023-04-30T09:40:53;5.37;;;3.80;;
7833;SDS011;3962;42.696;23.354;2023-04-30T09:43:21;4.40;;;4.00;;
7833;SDS011;3962;42.696;23.354;2023-04-30T09:45:48;4.63;;;3.87;;
7833;SDS011;3962;42.696;23.354;2023-04-30T09:48:16;4.97;;;3.83;;
7833;SDS011;3962;42.696;23.354;2023-04-30T09:50:43;8.70;;;3.50;;
7833;SDS011;3962;42.696;23.354;2023-04-30T09:53:11;5.23;;;3.50;;
7833;SDS011;3962;42.696;23.354;2023-04-30T09:55:42;5.43;;;4.23;;
7833;SDS011;3962;42.696;23.354;2023-04-30T09:58:09;4.67;;;4.00;;
7833;SDS011;3962;42.696;23.354;2023-04-30T10:00:37;4.73;;;4.00;;
7833;SDS011;3962;42.696;23.354;2023-04-30T10:03:05;4.50;;;4.07;;
7833;SDS011;3962;42.696;23.354;2023-04-30T10:05:35;5.23;;;4.17;;
7833;SDS011;3962;42.696;23.354;2023-04-30T10:08:06;7.87;;;3.70;;
7833;SDS011;3962;42.696;23.354;2023-04-30T10:10:39;8.07;;;3.83;;
7833;SDS011;3962;42.696;23.354;2023-04-30T10:13:10;4.50;;;3.83;;
7833;SDS011;3962;42.696;23.354;2023-04-30T10:15:44;8.50;;;4.17;;
7833;SDS011;3962;42.696;23.354;2023-04-30T10:18:16;3.90;;;3.50;;
7833;SDS011;3962;42.696;23.354;2023-04-30T10:20:45;7.40;;;4.47;;
7833;SDS011;3962;42.696;23.354;2023-04-30T10:23:14;7.03;;;3.67;;
7833;SDS011;3962;42.696;23.354;2023-04-30T10:25:41;10.53;;;3.87;;
7833;SDS011;3962;42.696;23.354;2023-04-30T10:28:11;8.40;;;3.83;;
7833;SDS011;3962;42.696;23.354;2023-04-30T10:30:38;8.57;;;4.00;;
7833;SDS011;3962;42.696;23.354;2023-04-30T10:33:09;13.77;;;4.93;;
7833;SDS011;3962;42.696;23.354;2023-04-30T10:35:43;11.30;;;4.53;;
7833;SDS011;3962;42.696;23.354;2023-04-30T10:38:17;7.13;;;4.20;;
7833;SDS011;3962;42.696;23.354;2023-04-30T10:40:47;9.30;;;4.77;;
7833;SDS011;3962;42.696;23.354;2023-04-30T10:43:17;9.70;;;4.07;;
7833;SDS011;3962;42.696;23.354;2023-04-30T10:45:44;8.30;;;4.20;;
7833;SDS011;3962;42.696;23.354;2023-04-30T10:48:12;4.90;;;3.73;;
7833;SDS011;3962;42.696;23.354;2023-04-30T10:50:41;7.50;;;3.83;;
7833;SDS011;3962;42.696;23.354;2023-04-30T10:53:11;4.97;;;4.00;;
7833;SDS011;3962;42.696;23.354;2023-04-30T10:55:52;5.07;;;3.53;;
7833;SDS011;3962;42.696;23.354;2023-04-30T10:58:24;6.10;;;3.43;;
7833;SDS011;3962;42.696;23.354;2023-04-30T11:00:59;6.77;;;3.70;;
7833;SDS011;3962;42.696;23.354;2023-04-30T11:03:28;4.93;;;4.07;;
7833;SDS011;3962;42.696;23.354;2023-04-30T11:05:57;5.60;;;3.40;;
7833;SDS011;3962;42.696;23.354;2023-04-30T11:08:31;6.10;;;3.60;;
7833;SDS011;3962;42.696;23.354;2023-04-30T11:11:02;3.73;;;3.23;;
7833;SDS011;3962;42.696;23.354;2023-04-30T11:13:38;6.43;;;3.50;;
7833;SDS011;3962;42.696;23.354;2023-04-30T11:16:07;3.33;;;3.00;;
7833;SDS011;3962;42.696;23.354;2023-04-30T11:18:34;4.17;;;2.97;;
7833;SDS011;3962;42.696;23.354;2023-04-30T11:21:07;3.57;;;3.03;;
7833;SDS011;3962;42.696;23.354;2023-04-30T11:23:34;4.20;;;2.80;;
7833;SDS011;3962;42.696;23.354;2023-04-30T11:26:01;6.43;;;3.07;;
7833;SDS011;3962;42.696;23.354;2023-04-30T11:28:30;5.67;;;3.43;;
7833;SDS011;3962;42.696;23.354;2023-04-30T11:31:00;5.97;;;3.07;;
7833;SDS011;3962;42.696;23.354;2023-04-30T11:33:28;5.27;;;2.90;;
7833;SDS011;3962;42.696;23.354;2023-04-30T11:35:56;5.13;;;4.00;;
7833;SDS011;3962;42.696;23.354;2023-04-30T11:38:25;4.57;;;3.30;;
7833;SDS011;3962;42.696;23.354;2023-04-30T11:40:52;3.87;;;3.47;;
7833;SDS011;3962;42.696;23.354;2023-04-30T11:43:20;6.53;;;4.40;;
7833;SDS011;3962;42.696;23.354;2023-04-30T11:45:57;8.60;;;5.30;;
7833;SDS011;3962;42.696;23.354;2023-04-30T11:48:31;5.67;;;3.50;;
7833;SDS011;3962;42.696;23.354;2023-04-30T11:51:01;7.10;;;3.70;;
7833;SDS011;3962;42.696;23.354;2023-04-30T11:53:29;6.33;;;4.60;;
7833;SDS011;3962;42.696;23.354;2023-04-30T11:55:56;5.63;;;4.13;;
7833;SDS011;3962;42.696;23.354;2023-04-30T11:58:23;4.30;;;3.90;;
7833;SDS011;3962;42.696;23.354;2023-04-30T12:00:49;6.13;;;4.30;;
7833;SDS011;3962;42.696;23.354;2023-04-30T12:03:18;5.43;;;4.17;;
7833;SDS011;3962;42.696;23.354;2023-04-30T12:05:45;6.40;;;4.00;;
7833;SDS011;3962;42.696;23.354;2023-04-30T12:08:12;8.53;;;4.73;;
7833;SDS011;3962;42.696;23.354;2023-04-30T12:10:39;5.53;;;4.27;;
7833;SDS011;3962;42.696;23.354;2023-04-30T12:13:06;4.53;;;4.13;;
7833;SDS011;3962;42.696;23.354;2023-04-30T12:15:33;5.77;;;4.47;;
7833;SDS011;3962;42.696;23.354;2023-04-30T12:18:01;5.60;;;3.70;;
7833;SDS011;3962;42.696;23.354;2023-04-30T12:20:38;4.67;;;3.93;;
7833;SDS011;3962;42.696;23.354;2023-04-30T12:23:06;4.50;;;4.10;;
7833;SDS011;3962;42.696;23.354;2023-04-30T12:25:38;6.10;;;4.33;;
7833;SDS011;3962;42.696;23.354;2023-04-30T12:28:06;6.23;;;4.30;;
7833;SDS011;3962;42.696;23.354;2023-04-30T12:30:33;4.67;;;4.17;;
7833;SDS011;3962;42.696;23.354;2023-04-30T12:33:00;6.00;;;4.43;;
7833;SDS011;3962;42.696;23.354;2023-04-30T12:35:30;4.07;;;3.30;;
7833;SDS011;3962;42.696;23.354;2023-04-30T12:38:02;4.70;;;3.53;;
7833;SDS011;3962;42.696;23.354;2023-04-30T12:40:30;7.77;;;4.20;;
7833;SDS011;3962;42.696;23.354;2023-04-30T12:43:01;4.17;;;3.60;;
7833;SDS011;3962;42.696;23.354;2023-04-30T12:45:42;5.87;;;4.80;;
7833;SDS011;3962;42.696;23.354;2023-04-30T12:48:09;7.60;;;4.13;;
7833;SDS011;3962;42.696;23.354;2023-04-30T12:50:36;7.80;;;4.60;;
7833;SDS011;3962;42.696;23.354;2023-04-30T12:53:05;6.87;;;5.03;;
7833;SDS011;3962;42.696;23.354;2023-04-30T12:55:33;5.40;;;4.47;;
7833;SDS011;3962;42.696;23.354;2023-04-30T12:58:06;5.37;;;4.20;;
7833;SDS011;3962;42.696;23.354;2023-04-30T13:00:44;6.17;;;3.93;;
7833;SDS011;3962;42.696;23.354;2023-04-30T13:03:12;5.60;;;4.33;;
7833;SDS011;3962;42.696;23.354;2023-04-30T13:05:40;5.30;;;4.80;;
7833;SDS011;3962;42.696;23.354;2023-04-30T13:08:08;6.63;;;4.13;;
7833;SDS011;3962;42.696;23.354;2023-04-30T13:10:35;6.70;;;4.00;;
7833;SDS011;3962;42.696;23.354;2023-04-30T13:13:02;7.23;;;4.30;;
7833;SDS011;3962;42.696;23.354;2023-04-30T13:15:29;4.73;;;3.67;;
7833;SDS011;3962;42.696;23.354;2023-04-30T13:17:56;5.30;;;4.10;;
7833;SDS011;3962;42.696;23.354;2023-04-30T13:20:23;5.33;;;3.60;;
7833;SDS011;3962;42.696;23.354;2023-04-30T13:22:50;5.33;;;4.10;;
7833;SDS011;3962;42.696;23.354;2023-04-30T13:25:19;5.47;;;4.17;;
7833;SDS011;3962;42.696;23.354;2023-04-30T13:27:46;6.00;;;3.50;;
7833;SDS011;3962;42.696;23.354;2023-04-30T13:30:13;5.17;;;3.80;;
7833;SDS011;3962;42.696;23.354;2023-04-30T13:32:40;4.57;;;4.00;;
7833;SDS011;3962;42.696;23.354;2023-04-30T13:35:07;4.87;;;4.10;;
7833;SDS011;3962;42.696;23.354;2023-04-30T13:37:35;6.43;;;4.50;;
7833;SDS011;3962;42.696;23.354;2023-04-30T13:40:03;3.63;;;3.33;;
7833;SDS011;3962;42.696;23.354;2023-04-30T13:42:32;4.07;;;3.67;;
7833;SDS011;3962;42.696;23.354;2023-04-30T13:44:59;4.27;;;3.67;;
7833;SDS011;3962;42.696;23.354;2023-04-30T13:47:26;4.83;;;3.90;;
7833;SDS011;3962;42.696;23.354;2023-04-30T13:49:53;4.77;;;3.50;;
7833;SDS011;3962;42.696;23.354;2023-04-30T13:52:19;4.23;;;3.40;;
7833;SDS011;3962;42.696;23.354;2023-04-30T13:54:46;4.70;;;3.50;;
7833;SDS011;3962;42.696;23.354;2023-04-30T13:57:13;5.63;;;3.80;;
7833;SDS011;3962;42.696;23.354;2023-04-30T13:59:41;3.77;;;3.33;;
7833;SDS011;3962;42.696;23.354;2023-04-30T14:02:08;7.60;;;3.40;;
7833;SDS011;3962;42.696;23.354;2023-04-30T14:04:35;3.87;;;3.30;;
7833;SDS011;3962;42.696;23.354;2023-04-30T14:07:02;4.50;;;3.50;;
7833;SDS011;3962;42.696;23.354;2023-04-30T14:09:29;5.40;;;3.57;;
7833;SDS011;3962;42.696;23.354;2023-04-30T14:11:56;9.37;;;3.17;;
7833;SDS011;3962;42.696;23.354;2023-04-30T14:14:23;5.03;;;3.73;;
7833;SDS011;3962;42.696;23.354;2023-04-30T14:16:52;3.73;;;3.10;;
7833;SDS011;3962;42.696;23.354;2023-04-30T14:19:19;3.43;;;2.90;;
7833;SDS011;3962;42.696;23.354;2023-04-30T14:21:48;3.90;;;3.30;;
7833;SDS011;3962;42.696;23.354;2023-04-30T14:24:15;8.83;;;3.60;;
7833;SDS011;3962;42.696;23.354;2023-04-30T14:26:42;5.93;;;3.93;;
7833;SDS011;3962;42.696;23.354;2023-04-30T14:29:09;6.10;;;3.13;;
7833;SDS011;3962;42.696;23.354;2023-04-30T14:31:37;5.67;;;3.67;;
7833;SDS011;3962;42.696;23.354;2023-04-30T14:34:05;5.33;;;3.63;;
7833;SDS011;3962;42.696;23.354;2023-04-30T14:36:32;5.70;;;3.60;;
7833;SDS011;3962;42.696;23.354;2023-04-30T14:38:59;4.90;;;4.07;;
7833;SDS011;3962;42.696;23.354;2023-04-30T14:41:28;7.23;;;4.60;;
7833;SDS011;3962;42.696;23.354;2023-04-30T14:43:54;7.30;;;4.73;;
7833;SDS011;3962;42.696;23.354;2023-04-30T14:46:21;6.23;;;3.60;;
7833;SDS011;3962;42.696;23.354;2023-04-30T14:48:48;3.53;;;3.17;;
7833;SDS011;3962;42.696;23.354;2023-04-30T14:51:17;4.80;;;3.77;;
7833;SDS011;3962;42.696;23.354;2023-04-30T14:53:43;5.63;;;4.00;;
7833;SDS011;3962;42.696;23.354;2023-04-30T14:56:10;7.00;;;3.83;;
7833;SDS011;3962;42.696;23.354;2023-04-30T14:58:37;5.83;;;3.60;;
7833;SDS011;3962;42.696;23.354;2023-04-30T15:01:04;4.40;;;3.40;;
7833;SDS011;3962;42.696;23.354;2023-04-30T15:03:31;3.97;;;3.50;;
7833;SDS011;3962;42.696;23.354;2023-04-30T15:05:57;4.27;;;3.37;;
7833;SDS011;3962;42.696;23.354;2023-04-30T15:08:25;5.67;;;3.67;;
7833;SDS011;3962;42.696;23.354;2023-04-30T15:10:52;6.27;;;3.80;;